Time;durP1;ratioP1;P1;durP2;ratioP2;P2;SDS_P1;SDS_P2;PMS_P1;PMS_P2;Temp;Humidity;BMP_temperature;BMP_pressure;BME280_temperature;BME280_humidity;BME280_pressure;Samples;Min_cycle;Max_cycle;Signal;HPM_P1;HPM_P2
2021/08/20 00:01:10;0.00;0.00;0.62;0.00;0.00;0.62;6.07;5.53;;;24.80;44.80;;;;;;2249494;61;20405;-52
2021/08/20 00:03:54;0.00;0.00;0.62;0.00;0.00;0.62;7.17;6.47;;;24.90;44.80;;;;;;2250139;61;20404;-57
2021/08/20 00:06:40;0.00;0.00;0.62;0.00;0.00;0.62;6.23;5.70;;;24.90;44.80;;;;;;2249870;61;20707;-54
2021/08/20 00:09:26;0.00;0.00;0.62;0.00;0.00;0.62;6.40;5.87;;;24.90;44.70;;;;;;2250311;61;20384;-55
2021/08/20 00:12:11;0.00;0.00;0.62;0.00;0.00;0.62;7.00;6.40;;;24.90;44.70;;;;;;2249769;61;20477;-57
2021/08/20 00:14:55;0.00;0.00;0.62;0.00;0.00;0.62;5.97;5.43;;;24.90;44.70;;;;;;2249588;61;20392;-54
2021/08/20 00:17:41;0.00;0.00;0.62;0.00;0.00;0.62;5.93;5.43;;;24.90;44.60;;;;;;2250010;61;20369;-55
2021/08/20 00:20:26;0.00;0.00;0.62;0.00;0.00;0.62;7.70;5.70;;;24.90;44.60;;;;;;2249783;61;20380;-56
2021/08/20 00:23:12;0.00;0.00;0.62;0.00;0.00;0.62;6.17;5.57;;;25.00;44.70;;;;;;2249060;61;20427;-57
2021/08/20 00:25:57;0.00;0.00;0.62;0.00;0.00;0.62;7.03;6.00;;;25.00;44.70;;;;;;2250050;61;20360;-53
2021/08/20 00:28:41;0.00;0.00;0.62;0.00;0.00;0.62;5.60;5.10;;;25.00;44.70;;;;;;2249788;61;20769;-53
2021/08/20 00:31:28;0.00;0.00;0.62;0.00;0.00;0.62;6.97;6.30;;;25.00;44.60;;;;;;2249554;61;20713;-51
2021/08/20 00:34:12;0.00;0.00;0.62;0.00;0.00;0.62;5.77;5.27;;;25.00;44.50;;;;;;2249799;61;20437;-56
2021/08/20 00:36:57;0.00;0.00;0.62;0.00;0.00;0.62;5.40;4.90;;;25.00;44.50;;;;;;2249379;61;20717;-52
2021/08/20 00:39:43;0.00;0.00;0.62;0.00;0.00;0.62;6.23;5.63;;;25.10;44.50;;;;;;2250052;61;20377;-53
2021/08/20 00:42:27;0.00;0.00;0.62;0.00;0.00;0.62;5.07;4.57;;;25.10;44.50;;;;;;2246609;61;20501;-52
2021/08/20 00:45:12;0.00;0.00;0.62;0.00;0.00;0.62;6.47;5.87;;;25.10;44.40;;;;;;2249341;61;20396;-51
2021/08/20 00:47:57;0.00;0.00;0.62;0.00;0.00;0.62;5.33;4.90;;;25.10;44.40;;;;;;2249866;61;20381;-52
2021/08/20 00:50:41;0.00;0.00;0.62;0.00;0.00;0.62;6.27;5.67;;;25.10;44.30;;;;;;2249924;61;20630;-55
2021/08/20 00:53:27;0.00;0.00;0.62;0.00;0.00;0.62;5.17;4.67;;;25.20;44.30;;;;;;2249512;61;20579;-53
2021/08/20 00:56:14;0.00;0.00;0.62;0.00;0.00;0.62;6.90;5.77;;;25.20;44.30;;;;;;2249360;61;20368;-53
2021/08/20 00:59:01;0.00;0.00;0.62;0.00;0.00;0.62;6.00;5.40;;;25.20;44.30;;;;;;2249194;61;20764;-51
2021/08/20 01:01:46;0.00;0.00;0.62;0.00;0.00;0.62;8.50;7.70;;;25.20;44.30;;;;;;2249512;61;20373;-54
2021/08/20 01:04:31;0.00;0.00;0.62;0.00;0.00;0.62;9.20;8.17;;;25.20;44.20;;;;;;2249338;61;20385;-52
2021/08/20 01:07:17;0.00;0.00;0.62;0.00;0.00;0.62;7.47;6.10;;;25.20;44.10;;;;;;2249072;61;20364;-49
2021/08/20 01:10:02;0.00;0.00;0.62;0.00;0.00;0.62;7.00;6.17;;;25.20;44.00;;;;;;2249535;61;20408;-52
2021/08/20 01:12:48;0.00;0.00;0.62;0.00;0.00;0.62;7.00;6.40;;;25.20;44.10;;;;;;2251902;61;20416;-51
2021/08/20 01:15:32;0.00;0.00;0.62;0.00;0.00;0.62;6.77;6.17;;;25.20;44.00;;;;;;2249416;61;20368;-53
2021/08/20 01:18:23;0.00;0.00;0.62;0.00;0.00;0.62;5.37;4.87;;;25.20;44.00;;;;;;2249119;61;20420;-52
2021/08/20 01:21:11;0.00;0.00;0.62;0.00;0.00;0.62;5.30;4.80;;;25.20;44.00;;;;;;2248692;61;20424;-56
2021/08/20 01:24:00;0.00;0.00;0.62;0.00;0.00;0.62;6.20;5.60;;;25.20;44.00;;;;;;2249498;61;20499;-48
2021/08/20 01:26:47;0.00;0.00;0.62;0.00;0.00;0.62;6.47;5.87;;;25.30;44.00;;;;;;2249234;61;20376;-53
2021/08/20 01:29:33;0.00;0.00;0.62;0.00;0.00;0.62;6.30;5.70;;;25.30;44.00;;;;;;2248735;61;20380;-51
2021/08/20 01:32:19;0.00;0.00;0.62;0.00;0.00;0.62;5.53;5.03;;;25.30;43.90;;;;;;2249441;61;20562;-52
2021/08/20 01:35:05;0.00;0.00;0.62;0.00;0.00;0.62;5.60;5.10;;;25.20;43.80;;;;;;2249379;61;20573;-54
2021/08/20 01:37:50;0.00;0.00;0.62;0.00;0.00;0.62;5.40;4.70;;;25.20;43.70;;;;;;2251536;61;20352;-52
2021/08/20 01:40:35;0.00;0.00;0.62;0.00;0.00;0.62;5.60;5.10;;;25.20;43.70;;;;;;2249655;61;20428;-54
2021/08/20 01:43:21;0.00;0.00;0.62;0.00;0.00;0.62;4.93;4.53;;;25.30;43.70;;;;;;2248777;61;20364;-51
2021/08/20 01:46:06;0.00;0.00;0.62;0.00;0.00;0.62;5.50;5.00;;;25.30;43.70;;;;;;2249386;61;20372;-55
2021/08/20 01:48:53;0.00;0.00;0.62;0.00;0.00;0.62;4.60;4.20;;;25.30;43.60;;;;;;2249107;61;20384;-52
2021/08/20 01:51:38;0.00;0.00;0.62;0.00;0.00;0.62;4.27;3.80;;;25.30;43.60;;;;;;2248705;61;20829;-51
2021/08/20 01:54:23;0.00;0.00;0.62;0.00;0.00;0.62;4.50;4.10;;;25.30;43.60;;;;;;2249353;61;20361;-56
2021/08/20 01:57:07;0.00;0.00;0.62;0.00;0.00;0.62;4.83;4.43;;;25.30;43.50;;;;;;2249592;61;20436;-54
2021/08/20 01:59:53;0.00;0.00;0.62;0.00;0.00;0.62;4.40;4.00;;;25.30;43.50;;;;;;2248782;61;20595;-54
2021/08/20 02:02:39;0.00;0.00;0.62;0.00;0.00;0.62;5.00;4.50;;;25.30;43.50;;;;;;2249004;61;20489;-51
2021/08/20 02:05:28;0.00;0.00;0.62;0.00;0.00;0.62;5.00;4.60;;;25.30;43.40;;;;;;2248728;61;20409;-51
2021/08/20 02:08:13;0.00;0.00;0.62;0.00;0.00;0.62;4.80;4.30;;;25.40;43.40;;;;;;2249133;61;20388;-52
2021/08/20 02:10:58;0.00;0.00;0.62;0.00;0.00;0.62;5.43;4.57;;;25.40;43.40;;;;;;2249120;61;20777;-50
2021/08/20 02:13:43;0.00;0.00;0.62;0.00;0.00;0.62;4.63;4.20;;;25.40;44.10;;;;;;2248651;61;20412;-55
2021/08/20 02:16:29;0.00;0.00;0.62;0.00;0.00;0.62;4.37;3.97;;;25.40;43.40;;;;;;2249363;61;20360;-53
2021/08/20 02:19:14;0.00;0.00;0.62;0.00;0.00;0.62;4.77;4.33;;;25.40;43.30;;;;;;2249538;61;20392;-54
2021/08/20 02:21:59;0.00;0.00;0.62;0.00;0.00;0.62;4.90;4.50;;;25.40;43.30;;;;;;2248570;61;20412;-52
2021/08/20 02:24:56;0.00;0.00;0.62;0.00;0.00;0.62;4.80;4.30;;;25.40;43.30;;;;;;2249168;61;20409;-54
2021/08/20 02:27:42;0.00;0.00;0.62;0.00;0.00;0.62;5.43;4.93;;;25.40;43.30;;;;;;2248331;61;20381;-51
2021/08/20 02:30:27;0.00;0.00;0.62;0.00;0.00;0.62;5.00;4.60;;;25.40;43.20;;;;;;2249688;61;20368;-54
2021/08/20 02:33:13;0.00;0.00;0.62;0.00;0.00;0.62;5.47;4.93;;;25.40;43.20;;;;;;2249194;61;20356;-52
2021/08/20 02:35:58;0.00;0.00;0.62;0.00;0.00;0.62;4.80;4.40;;;25.40;43.20;;;;;;2248536;61;20729;-52
2021/08/20 02:38:43;0.00;0.00;0.62;0.00;0.00;0.62;5.73;5.13;;;25.40;43.10;;;;;;2249667;61;20381;-51
2021/08/20 02:41:29;0.00;0.00;0.62;0.00;0.00;0.62;6.17;5.63;;;25.40;43.10;;;;;;2249080;61;20683;-52
2021/08/20 02:44:16;0.00;0.00;0.62;0.00;0.00;0.62;5.90;4.80;;;25.50;43.20;;;;;;2248869;61;20361;-53
2021/08/20 02:47:00;0.00;0.00;0.62;0.00;0.00;0.62;5.77;5.27;;;25.50;43.20;;;;;;2249525;61;20359;-53
2021/08/20 02:49:46;0.00;0.00;0.62;0.00;0.00;0.62;6.23;5.27;;;25.40;43.00;;;;;;2248489;61;20448;-54
2021/08/20 02:52:32;0.00;0.00;0.62;0.00;0.00;0.62;7.57;5.67;;;25.50;43.10;;;;;;2249243;61;20364;-53
2021/08/20 02:55:16;0.00;0.00;0.62;0.00;0.00;0.62;7.20;6.23;;;25.40;43.00;;;;;;2249239;61;20760;-56
2021/08/20 02:58:04;0.00;0.00;0.62;0.00;0.00;0.62;5.73;5.23;;;25.50;43.00;;;;;;2248281;61;20453;-51
2021/08/20 03:00:53;0.00;0.00;0.62;0.00;0.00;0.62;5.80;5.20;;;25.50;43.00;;;;;;2246624;61;20586;-55
2021/08/20 03:03:38;0.00;0.00;0.62;0.00;0.00;0.62;6.97;6.37;;;25.50;43.00;;;;;;2249011;61;20368;-53
2021/08/20 03:06:34;0.00;0.00;0.62;0.00;0.00;0.62;6.40;5.90;;;25.50;42.90;;;;;;2248580;61;20372;-53
2021/08/20 03:09:20;0.00;0.00;0.62;0.00;0.00;0.62;6.07;5.27;;;25.50;42.90;;;;;;2248981;61;20673;-53
2021/08/20 03:12:08;0.00;0.00;0.62;0.00;0.00;0.62;5.97;5.47;;;25.40;42.80;;;;;;2248394;61;20369;-53
2021/08/20 03:15:01;0.00;0.00;0.62;0.00;0.00;0.62;6.40;5.80;;;25.50;42.80;;;;;;2249266;61;20400;-54
2021/08/20 03:17:50;0.00;0.00;0.62;0.00;0.00;0.62;6.47;5.50;;;25.50;42.80;;;;;;2248810;61;20357;-51
2021/08/20 03:20:34;0.00;0.00;0.62;0.00;0.00;0.62;6.63;5.93;;;25.50;42.80;;;;;;2248483;61;20357;-53
2021/08/20 03:23:27;0.00;0.00;0.62;0.00;0.00;0.62;8.10;6.20;;;25.50;42.80;;;;;;2249296;61;20837;-54
2021/08/20 03:26:13;0.00;0.00;0.62;0.00;0.00;0.62;6.80;6.10;;;25.50;42.80;;;;;;2248928;61;20376;-53
2021/08/20 03:29:05;0.00;0.00;0.62;0.00;0.00;0.62;6.27;5.67;;;25.50;42.80;;;;;;2249011;61;20420;-53
2021/08/20 03:31:55;0.00;0.00;0.62;0.00;0.00;0.62;6.37;5.87;;;25.50;42.70;;;;;;2248952;61;20621;-52
2021/08/20 03:34:40;0.00;0.00;0.62;0.00;0.00;0.62;6.40;5.80;;;25.50;42.70;;;;;;2248495;61;20355;-60
2021/08/20 03:37:25;0.00;0.00;0.62;0.00;0.00;0.62;7.40;6.20;;;25.50;42.70;;;;;;2249931;61;20367;-53
2021/08/20 03:40:13;0.00;0.00;0.62;0.00;0.00;0.62;6.70;6.10;;;25.50;42.70;;;;;;2249595;61;20493;-57
2021/08/20 03:43:07;0.00;0.00;0.62;0.00;0.00;0.62;5.20;4.80;;;25.50;42.70;;;;;;2249074;61;20629;-51
2021/08/20 03:46:06;0.00;0.00;0.62;0.00;0.00;0.62;7.00;6.30;;;25.50;42.60;;;;;;2249828;61;20573;-55
2021/08/20 03:48:51;0.00;0.00;0.62;0.00;0.00;0.62;8.40;6.20;;;25.50;42.60;;;;;;2249353;61;20663;-52
2021/08/20 03:51:36;0.00;0.00;0.62;0.00;0.00;0.62;6.10;5.50;;;25.50;42.60;;;;;;2249945;61;20595;-52
2021/08/20 03:54:24;0.00;0.00;0.62;0.00;0.00;0.62;6.23;5.60;;;25.50;42.60;;;;;;2249528;61;20395;-54
2021/08/20 03:57:10;0.00;0.00;0.62;0.00;0.00;0.62;5.97;5.47;;;25.50;42.60;;;;;;2248869;61;20589;-50
2021/08/20 03:59:57;0.00;0.00;0.62;0.00;0.00;0.62;6.17;5.57;;;25.50;42.50;;;;;;2249876;61;20776;-50
2021/08/20 04:02:41;0.00;0.00;0.62;0.00;0.00;0.62;5.73;5.17;;;25.50;42.50;;;;;;2249401;61;20408;-49
2021/08/20 04:05:26;0.00;0.00;0.62;0.00;0.00;0.62;5.80;5.30;;;25.50;42.50;;;;;;2249116;61;20632;-53
2021/08/20 04:08:21;0.00;0.00;0.62;0.00;0.00;0.62;6.72;6.05;;;25.50;42.40;;;;;;2249358;61;20432;-52
2021/08/20 04:11:32;0.00;0.00;0.62;0.00;0.00;0.62;6.07;5.23;;;25.50;42.40;;;;;;2249476;61;20235;-53
2021/08/20 04:14:24;0.00;0.00;0.62;0.00;0.00;0.62;5.90;5.40;;;25.50;42.30;;;;;;2249832;61;20353;-53
2021/08/20 04:17:09;0.00;0.00;0.62;0.00;0.00;0.62;6.60;5.43;;;25.50;42.30;;;;;;2249374;61;20369;-56
2021/08/20 04:19:56;0.00;0.00;0.62;0.00;0.00;0.62;6.03;5.53;;;25.50;42.30;;;;;;2249121;61;20377;-53
2021/08/20 04:22:41;0.00;0.00;0.62;0.00;0.00;0.62;5.80;5.00;;;25.50;42.30;;;;;;2249491;61;20391;-52
2021/08/20 04:25:27;0.00;0.00;0.62;0.00;0.00;0.62;5.77;5.17;;;25.50;42.20;;;;;;2249645;61;20393;-52
2021/08/20 04:28:22;0.00;0.00;0.62;0.00;0.00;0.62;6.00;5.40;;;25.50;42.30;;;;;;2249896;61;20388;-52
2021/08/20 04:31:25;0.00;0.00;0.62;0.00;0.00;0.62;7.20;5.27;;;25.50;42.90;;;;;;2249359;61;20433;-54
2021/08/20 04:34:29;0.00;0.00;0.62;0.00;0.00;0.62;5.20;4.70;;;25.50;42.20;;;;;;2249424;61;20745;-53
2021/08/20 04:37:46;0.00;0.00;0.62;0.00;0.00;0.62;4.60;4.20;;;25.50;42.20;;;;;;2247950;61;20416;-53
2021/08/20 04:40:51;0.00;0.00;0.62;0.00;0.00;0.62;5.50;4.87;;;25.50;42.20;;;;;;2249333;61;20359;-53
2021/08/20 04:43:54;0.00;0.00;0.62;0.00;0.00;0.62;6.30;4.90;;;25.50;42.10;;;;;;2250036;61;20465;-51
2021/08/20 04:47:00;0.00;0.00;0.62;0.00;0.00;0.62;4.93;4.43;;;25.50;42.10;;;;;;2249561;61;20372;-53
2021/08/20 04:50:04;0.00;0.00;0.62;0.00;0.00;0.62;5.60;5.10;;;25.50;42.00;;;;;;2249447;61;20647;-53
2021/08/20 04:53:18;0.00;0.00;0.62;0.00;0.00;0.62;6.10;5.50;;;25.50;42.00;;;;;;2249433;61;20751;-54
2021/08/20 04:56:21;0.00;0.00;0.62;0.00;0.00;0.62;5.60;5.03;;;25.50;42.00;;;;;;2248954;61;20356;-51
2021/08/20 04:59:06;0.00;0.00;0.62;0.00;0.00;0.62;5.77;5.17;;;25.50;41.90;;;;;;2249379;61;20388;-55
2021/08/20 05:01:50;0.00;0.00;0.62;0.00;0.00;0.62;4.73;4.30;;;25.50;41.90;;;;;;2249265;61;20569;-52
2021/08/20 05:04:37;0.00;0.00;0.62;0.00;0.00;0.62;5.63;4.97;;;25.50;41.90;;;;;;2248745;61;20396;-52
2021/08/20 05:07:22;0.00;0.00;0.62;0.00;0.00;0.62;5.50;5.03;;;25.50;41.90;;;;;;2249768;61;20361;-51
2021/08/20 05:10:11;0.00;0.00;0.62;0.00;0.00;0.62;7.43;6.00;;;25.50;41.90;;;;;;2249670;61;20369;-56
2021/08/20 05:12:56;0.00;0.00;0.62;0.00;0.00;0.62;8.70;7.33;;;25.50;41.80;;;;;;2249415;61;20360;-52
2021/08/20 05:15:41;0.00;0.00;0.62;0.00;0.00;0.62;7.30;6.60;;;25.50;41.50;;;;;;2249870;61;20364;-52
2021/08/20 05:18:25;0.00;0.00;0.62;0.00;0.00;0.62;9.07;8.17;;;25.50;41.10;;;;;;2249077;61;20377;-50
2021/08/20 05:21:11;0.00;0.00;0.62;0.00;0.00;0.62;8.53;6.73;;;25.40;40.80;;;;;;2249449;61;20441;-53
2021/08/20 05:23:56;0.00;0.00;0.62;0.00;0.00;0.62;5.80;5.20;;;25.40;40.80;;;;;;2249804;61;20376;-50
2021/08/20 05:26:40;0.00;0.00;0.62;0.00;0.00;0.62;5.13;4.63;;;25.40;41.00;;;;;;2249049;61;20360;-52
2021/08/20 05:29:25;0.00;0.00;0.62;0.00;0.00;0.62;5.10;4.60;;;25.40;41.10;;;;;;2249964;61;20584;-50
2021/08/20 05:32:10;0.00;0.00;0.62;0.00;0.00;0.62;6.00;4.80;;;25.30;41.20;;;;;;2249849;61;20412;-51
2021/08/20 05:34:55;0.00;0.00;0.62;0.00;0.00;0.62;5.13;4.63;;;25.30;41.20;;;;;;2250070;61;20356;-54
2021/08/20 05:37:41;0.00;0.00;0.62;0.00;0.00;0.62;5.50;5.00;;;25.30;41.30;;;;;;2249698;61;20368;-51
2021/08/20 05:40:25;0.00;0.00;0.62;0.00;0.00;0.62;8.07;7.23;;;25.30;41.30;;;;;;2249104;61;20749;-55
2021/08/20 05:43:10;0.00;0.00;0.62;0.00;0.00;0.62;8.50;5.80;;;25.30;41.90;;;;;;2249875;61;20392;-57
2021/08/20 05:45:54;0.00;0.00;0.62;0.00;0.00;0.62;7.30;5.27;;;25.30;41.20;;;;;;2249658;61;20729;-57
2021/08/20 05:48:39;0.00;0.00;0.62;0.00;0.00;0.62;5.13;4.37;;;25.40;41.30;;;;;;2248952;61;20437;-55
2021/08/20 05:51:25;0.00;0.00;0.62;0.00;0.00;0.62;5.57;5.07;;;25.40;41.40;;;;;;2249954;61;20420;-54
2021/08/20 05:54:11;0.00;0.00;0.62;0.00;0.00;0.62;5.97;5.03;;;25.30;41.30;;;;;;2249625;61;20400;-60
2021/08/20 05:56:56;0.00;0.00;0.62;0.00;0.00;0.62;4.73;4.33;;;25.40;41.40;;;;;;2249493;61;20364;-58
2021/08/20 05:59:40;0.00;0.00;0.62;0.00;0.00;0.62;6.60;5.27;;;25.40;41.40;;;;;;2249387;61;20388;-59
2021/08/20 06:02:25;0.00;0.00;0.62;0.00;0.00;0.62;5.47;4.60;;;25.40;41.40;;;;;;2255568;61;20387;-54
2021/08/20 06:05:10;0.00;0.00;0.62;0.00;0.00;0.62;5.87;4.60;;;25.40;41.40;;;;;;2257510;61;20366;-58
2021/08/20 06:07:55;0.00;0.00;0.62;0.00;0.00;0.62;5.20;4.60;;;25.40;41.30;;;;;;2257004;61;20731;-57
2021/08/20 06:10:44;0.00;0.00;0.62;0.00;0.00;0.62;6.33;5.80;;;25.50;41.40;;;;;;2256845;61;20363;-57
2021/08/20 06:13:29;0.00;0.00;0.62;0.00;0.00;0.62;6.70;5.13;;;25.50;41.30;;;;;;2257447;61;20406;-55
2021/08/20 06:16:13;0.00;0.00;0.62;0.00;0.00;0.62;5.57;5.07;;;25.50;41.10;;;;;;2257331;61;20367;-53
2021/08/20 06:18:57;0.00;0.00;0.62;0.00;0.00;0.62;7.10;5.40;;;25.50;41.10;;;;;;2257002;61;20379;-55
2021/08/20 06:21:42;0.00;0.00;0.62;0.00;0.00;0.62;5.63;4.93;;;25.50;41.10;;;;;;2257450;61;20422;-60
2021/08/20 06:24:26;0.00;0.00;0.62;0.00;0.00;0.62;5.30;4.47;;;25.50;41.10;;;;;;2256410;61;20586;-56
2021/08/20 06:27:12;0.00;0.00;0.62;0.00;0.00;0.62;5.27;4.77;;;25.50;41.10;;;;;;2256779;61;20370;-51
2021/08/20 06:29:57;0.00;0.00;0.62;0.00;0.00;0.62;5.30;4.70;;;25.50;41.20;;;;;;2253246;61;20500;-54
2021/08/20 06:32:41;0.00;0.00;0.62;0.00;0.00;0.62;5.87;4.77;;;25.50;41.10;;;;;;2252994;61;20779;-59
2021/08/20 06:35:26;0.00;0.00;0.62;0.00;0.00;0.62;5.20;4.70;;;25.50;41.10;;;;;;2253663;61;20384;-55
2021/08/20 06:38:10;0.00;0.00;0.62;0.00;0.00;0.62;4.60;4.20;;;25.50;41.10;;;;;;2253267;61;20454;-55
2021/08/20 06:40:55;0.00;0.00;0.62;0.00;0.00;0.62;5.77;4.20;;;25.60;41.20;;;;;;2253061;61;20623;-53
2021/08/20 06:43:41;0.00;0.00;0.62;0.00;0.00;0.62;5.47;4.70;;;25.60;41.10;;;;;;2253652;61;20360;-53
2021/08/20 06:46:25;0.00;0.00;0.62;0.00;0.00;0.62;5.27;4.77;;;25.60;41.00;;;;;;2253094;61;20371;-54
2021/08/20 06:49:10;0.00;0.00;0.62;0.00;0.00;0.62;6.00;4.17;;;25.60;41.00;;;;;;2253614;61;20399;-56
2021/08/20 06:51:55;0.00;0.00;0.62;0.00;0.00;0.62;5.23;4.73;;;25.60;41.00;;;;;;2253279;61;20423;-56
2021/08/20 06:54:39;0.00;0.00;0.62;0.00;0.00;0.62;4.33;3.93;;;25.70;41.00;;;;;;2253001;61;20360;-52
2021/08/20 06:57:24;0.00;0.00;0.62;0.00;0.00;0.62;5.10;3.90;;;25.70;41.00;;;;;;2253629;61;20364;-53
2021/08/20 07:00:11;0.00;0.00;0.62;0.00;0.00;0.62;5.97;4.57;;;25.70;41.00;;;;;;2253345;61;20689;-54
2021/08/20 07:02:56;0.00;0.00;0.62;0.00;0.00;0.62;5.73;5.20;;;25.70;40.90;;;;;;2252850;61;20439;-54
2021/08/20 07:05:40;0.00;0.00;0.62;0.00;0.00;0.62;5.77;4.70;;;25.70;40.90;;;;;;2253418;61;20367;-55
2021/08/20 07:08:25;0.00;0.00;0.62;0.00;0.00;0.62;5.07;4.40;;;25.70;40.90;;;;;;2253337;61;20419;-57
2021/08/20 07:11:09;0.00;0.00;0.62;0.00;0.00;0.62;5.37;4.87;;;25.70;40.80;;;;;;2254104;61;20619;-56
2021/08/20 07:13:54;0.00;0.00;0.62;0.00;0.00;0.62;4.90;4.20;;;25.70;40.60;;;;;;2254056;61;20363;-55
2021/08/20 07:16:40;0.00;0.00;0.62;0.00;0.00;0.62;4.43;3.90;;;25.70;40.60;;;;;;2253651;61;20432;-52
2021/08/20 07:19:24;0.00;0.00;0.62;0.00;0.00;0.62;5.13;4.13;;;25.70;40.60;;;;;;2254134;61;20620;-54
2021/08/20 07:22:09;0.00;0.00;0.62;0.00;0.00;0.62;4.60;4.10;;;25.70;40.50;;;;;;2253954;61;20415;-52
2021/08/20 07:24:54;0.00;0.00;0.62;0.00;0.00;0.62;4.80;4.30;;;25.70;40.50;;;;;;2253524;61;20371;-51
2021/08/20 07:27:39;0.00;0.00;0.62;0.00;0.00;0.62;4.63;4.07;;;25.70;40.50;;;;;;2253948;61;20367;-53
2021/08/20 07:30:23;0.00;0.00;0.62;0.00;0.00;0.62;5.47;4.97;;;25.70;40.50;;;;;;2253896;61;20367;-58
2021/08/20 07:33:09;0.00;0.00;0.62;0.00;0.00;0.62;5.47;4.90;;;25.80;40.50;;;;;;2252254;61;20387;-56
2021/08/20 07:35:54;0.00;0.00;0.62;0.00;0.00;0.62;4.50;4.10;;;25.70;40.40;;;;;;2253572;61;20723;-57
2021/08/20 07:38:38;0.00;0.00;0.62;0.00;0.00;0.62;5.67;4.80;;;25.80;40.50;;;;;;2253072;61;20407;-54
2021/08/20 07:41:23;0.00;0.00;0.62;0.00;0.00;0.62;4.83;4.43;;;25.80;40.50;;;;;;2253756;61;20363;-50
2021/08/20 07:44:13;0.00;0.00;0.62;0.00;0.00;0.62;8.60;6.33;;;25.80;41.20;;;;;;2253743;61;20403;-53
2021/08/20 07:46:59;0.00;0.00;0.62;0.00;0.00;0.62;6.60;5.90;;;25.80;40.40;;;;;;2252921;61;20779;-51
2021/08/20 07:49:44;0.00;0.00;0.62;0.00;0.00;0.62;7.33;6.63;;;25.80;40.40;;;;;;2253816;61;20415;-54
2021/08/20 07:52:29;0.00;0.00;0.62;0.00;0.00;0.62;8.00;6.07;;;25.80;40.40;;;;;;2253641;61;20368;-57
2021/08/20 07:55:17;0.00;0.00;0.62;0.00;0.00;0.62;6.20;5.60;;;25.80;40.40;;;;;;2253224;61;20368;-55
2021/08/20 07:58:01;0.00;0.00;0.62;0.00;0.00;0.62;7.00;5.90;;;25.80;40.40;;;;;;2253497;61;20454;-58
2021/08/20 08:00:46;0.00;0.00;0.62;0.00;0.00;0.62;10.70;5.80;;;25.80;40.40;;;;;;2253039;61;20697;-56
2021/08/20 08:03:30;0.00;0.00;0.62;0.00;0.00;0.62;9.27;7.10;;;25.80;40.40;;;;;;2253820;61;20616;-53
2021/08/20 08:06:17;0.00;0.00;0.62;0.00;0.00;0.62;7.67;6.40;;;25.80;40.40;;;;;;2253479;61;20364;-57
2021/08/20 08:09:02;0.00;0.00;0.62;0.00;0.00;0.62;10.40;6.53;;;25.80;40.40;;;;;;2252882;61;20466;-55
2021/08/20 08:11:46;0.00;0.00;0.62;0.00;0.00;0.62;8.07;7.20;;;25.80;40.40;;;;;;2253433;61;20759;-57
2021/08/20 08:14:31;0.00;0.00;0.62;0.00;0.00;0.62;10.60;9.50;;;25.80;40.40;;;;;;2253575;61;20463;-54
2021/08/20 08:17:15;0.00;0.00;0.62;0.00;0.00;0.62;11.57;10.33;;;25.80;40.10;;;;;;2253086;61;20411;-56
2021/08/20 08:20:00;0.00;0.00;0.62;0.00;0.00;0.62;11.37;10.20;;;25.80;39.80;;;;;;2253672;61;20887;-53
2021/08/20 08:22:46;0.00;0.00;0.62;0.00;0.00;0.62;14.63;13.07;;;25.80;39.70;;;;;;2252812;61;20724;-51
2021/08/20 08:25:31;0.00;0.00;0.62;0.00;0.00;0.62;14.40;12.67;;;25.80;39.50;;;;;;2253686;61;20368;-52
2021/08/20 08:28:15;0.00;0.00;0.62;0.00;0.00;0.62;11.10;10.00;;;25.70;39.30;;;;;;2253235;61;20852;-49
2021/08/20 08:31:02;0.00;0.00;0.62;0.00;0.00;0.62;15.63;10.70;;;25.70;39.90;;;;;;2252821;61;20367;-50
2021/08/20 08:33:47;0.00;0.00;0.62;0.00;0.00;0.62;12.20;10.90;;;25.70;39.30;;;;;;2253751;61;20393;-55
2021/08/20 08:36:35;0.00;0.00;0.62;0.00;0.00;0.62;12.40;11.20;;;25.60;39.20;;;;;;2253407;61;20371;-51
2021/08/20 08:39:20;0.00;0.00;0.62;0.00;0.00;0.62;12.80;10.17;;;25.60;39.10;;;;;;2252995;61;20388;-49
2021/08/20 08:42:06;0.00;0.00;0.62;0.00;0.00;0.62;12.03;10.87;;;25.50;39.10;;;;;;2253595;61;20386;-52
2021/08/20 08:44:51;0.00;0.00;0.62;0.00;0.00;0.62;13.20;11.80;;;25.50;39.10;;;;;;2252966;61;20406;-53
2021/08/20 08:47:36;0.00;0.00;0.62;0.00;0.00;0.62;12.03;10.80;;;25.50;39.10;;;;;;2253562;61;20364;-52
2021/08/20 08:50:22;0.00;0.00;0.62;0.00;0.00;0.62;12.10;10.90;;;25.40;39.00;;;;;;2253492;61;20360;-52
2021/08/20 08:53:07;0.00;0.00;0.62;0.00;0.00;0.62;11.23;10.13;;;25.40;39.10;;;;;;2253032;61;20380;-50
2021/08/20 08:55:53;0.00;0.00;0.62;0.00;0.00;0.62;11.00;9.90;;;25.40;39.00;;;;;;2253802;61;20763;-52
2021/08/20 08:58:38;0.00;0.00;0.62;0.00;0.00;0.62;12.33;11.03;;;25.40;38.90;;;;;;2253326;61;20445;-53
2021/08/20 09:01:28;0.00;0.00;0.62;0.00;0.00;0.62;11.20;10.00;;;25.30;38.80;;;;;;2252719;61;20368;-50
2021/08/20 09:04:15;0.00;0.00;0.62;0.00;0.00;0.62;12.10;10.20;;;25.30;38.90;;;;;;2253643;61;20375;-54
2021/08/20 09:06:59;0.00;0.00;0.62;0.00;0.00;0.62;12.17;10.13;;;25.30;38.90;;;;;;2253076;61;20584;-53
2021/08/20 09:09:44;0.00;0.00;0.62;0.00;0.00;0.62;11.30;10.00;;;25.20;38.80;;;;;;2253575;61;20388;-53
2021/08/20 09:12:30;0.00;0.00;0.62;0.00;0.00;0.62;10.70;8.60;;;25.20;38.80;;;;;;2253351;61;20708;-51
2021/08/20 09:15:16;0.00;0.00;0.62;0.00;0.00;0.62;10.50;7.10;;;25.20;38.90;;;;;;2252829;61;20383;-54
2021/08/20 09:18:02;0.00;0.00;0.62;0.00;0.00;0.62;11.43;8.40;;;25.20;39.10;;;;;;2253349;61;20394;-53
2021/08/20 09:20:47;0.00;0.00;0.62;0.00;0.00;0.62;11.03;7.73;;;25.20;39.20;;;;;;2253349;61;20411;-53
2021/08/20 09:23:33;0.00;0.00;0.62;0.00;0.00;0.62;9.90;7.90;;;25.20;39.20;;;;;;2252780;61;20623;-51
2021/08/20 09:26:23;0.00;0.00;0.62;0.00;0.00;0.62;8.07;7.27;;;25.20;39.10;;;;;;2253437;61;20383;-51
2021/08/20 09:29:12;0.00;0.00;0.62;0.00;0.00;0.62;12.10;9.13;;;25.20;39.10;;;;;;2253043;61;20387;-53
2021/08/20 09:32:00;0.00;0.00;0.62;0.00;0.00;0.62;11.30;10.20;;;25.10;39.10;;;;;;2253494;61;20581;-51
2021/08/20 09:34:49;0.00;0.00;0.62;0.00;0.00;0.62;9.47;8.57;;;25.20;39.10;;;;;;2253254;61;20363;-51
2021/08/20 09:37:33;0.00;0.00;0.62;0.00;0.00;0.62;8.20;7.40;;;25.20;38.90;;;;;;2252742;61;20359;-50
2021/08/20 09:40:23;0.00;0.00;0.62;0.00;0.00;0.62;10.77;8.20;;;25.20;39.00;;;;;;2253209;61;20589;-53
2021/08/20 09:43:13;0.00;0.00;0.62;0.00;0.00;0.62;8.93;7.17;;;25.20;38.90;;;;;;2253045;61;20376;-53
2021/08/20 09:46:04;0.00;0.00;0.62;0.00;0.00;0.62;8.57;6.40;;;25.20;38.90;;;;;;2252824;61;20533;-55
2021/08/20 09:48:54;0.00;0.00;0.62;0.00;0.00;0.62;8.63;7.73;;;25.20;38.80;;;;;;2253208;61;20456;-55
2021/08/20 09:51:43;0.00;0.00;0.62;0.00;0.00;0.62;8.03;7.23;;;25.20;38.80;;;;;;2252666;61;20384;-53
2021/08/20 09:54:30;0.00;0.00;0.62;0.00;0.00;0.62;7.93;7.07;;;25.20;38.70;;;;;;2253552;61;20356;-52
2021/08/20 09:57:15;0.00;0.00;0.62;0.00;0.00;0.62;9.07;8.03;;;25.20;38.60;;;;;;2253119;61;20608;-52
2021/08/20 10:00:00;0.00;0.00;0.62;0.00;0.00;0.62;9.53;6.87;;;25.20;38.60;;;;;;2252780;61;20507;-52
2021/08/20 10:02:46;0.00;0.00;0.62;0.00;0.00;0.62;7.90;6.80;;;25.20;38.60;;;;;;2253346;61;20391;-52
2021/08/20 10:05:32;0.00;0.00;0.62;0.00;0.00;0.62;9.63;7.13;;;25.20;38.50;;;;;;2253189;61;20364;-51
2021/08/20 10:08:19;0.00;0.00;0.62;0.00;0.00;0.62;8.57;7.60;;;25.20;38.40;;;;;;2252598;61;20731;-51
2021/08/20 10:11:03;0.00;0.00;0.62;0.00;0.00;0.62;7.77;7.00;;;25.20;39.00;;;;;;2253079;61;20724;-54
2021/08/20 10:13:48;0.00;0.00;0.62;0.00;0.00;0.62;7.87;6.80;;;25.30;38.40;;;;;;2252665;61;20745;-51
2021/08/20 10:16:35;0.00;0.00;0.62;0.00;0.00;0.62;7.50;6.80;;;25.20;38.30;;;;;;2253601;61;20952;-51
2021/08/20 10:19:22;0.00;0.00;0.62;0.00;0.00;0.62;8.67;5.77;;;25.30;38.40;;;;;;2253142;61;20427;-55
2021/08/20 10:22:07;0.00;0.00;0.62;0.00;0.00;0.62;6.97;6.27;;;25.30;38.40;;;;;;2252590;61;20488;-51
2021/08/20 10:24:52;0.00;0.00;0.62;0.00;0.00;0.62;5.90;5.30;;;25.30;38.40;;;;;;2253291;61;20419;-55
2021/08/20 10:27:38;0.00;0.00;0.62;0.00;0.00;0.62;7.20;6.37;;;25.30;38.40;;;;;;2252856;61;20423;-53
2021/08/20 10:30:23;0.00;0.00;0.62;0.00;0.00;0.62;7.00;6.40;;;25.40;38.40;;;;;;2252866;61;20363;-52
2021/08/20 10:33:07;0.00;0.00;0.62;0.00;0.00;0.62;8.30;6.30;;;25.40;38.30;;;;;;2253181;61;20448;-55
2021/08/20 10:35:56;0.00;0.00;0.62;0.00;0.00;0.62;10.83;6.47;;;25.40;38.30;;;;;;2252766;61;20402;-52
2021/08/20 10:38:43;0.00;0.00;0.62;0.00;0.00;0.62;6.73;6.03;;;25.40;38.20;;;;;;2253297;61;20602;-54
2021/08/20 10:41:27;0.00;0.00;0.62;0.00;0.00;0.62;7.30;5.80;;;25.50;38.20;;;;;;2253037;61;20741;-53
2021/08/20 10:44:17;0.00;0.00;0.62;0.00;0.00;0.62;8.93;5.33;;;25.50;38.20;;;;;;2252537;61;20399;-54
2021/08/20 10:47:01;0.00;0.00;0.62;0.00;0.00;0.62;5.47;4.90;;;25.50;38.10;;;;;;2253977;61;20363;-55
2021/08/20 10:49:47;0.00;0.00;0.62;0.00;0.00;0.62;4.20;3.80;;;25.50;37.80;;;;;;2253793;61;20414;-52
2021/08/20 10:52:38;0.00;0.00;0.62;0.00;0.00;0.62;5.30;4.53;;;25.60;37.80;;;;;;2253366;61;20394;-53
2021/08/20 10:55:28;0.00;0.00;0.62;0.00;0.00;0.62;5.63;5.10;;;25.60;37.40;;;;;;2254082;61;20368;-53
2021/08/20 10:58:13;0.00;0.00;0.62;0.00;0.00;0.62;7.37;4.90;;;25.60;37.50;;;;;;2253050;61;20403;-53